createdAt,value
2019-04-30T00:00:10.017Z,8.78
2019-04-30T00:02:58.916Z,9.28
2019-04-30T00:05:28.002Z,7.53
2019-04-30T00:07:58.480Z,8.03
2019-04-30T00:10:35.407Z,8.70
2019-04-30T00:12:57.191Z,7.70
2019-04-30T00:15:25.878Z,8.25
2019-04-30T00:17:58.675Z,7.12
2019-04-30T00:20:25.585Z,7.40
2019-04-30T00:22:55.298Z,7.00
2019-04-30T00:25:27.563Z,7.45
2019-04-30T00:27:55.979Z,8.15
2019-04-30T00:30:25.240Z,6.87
2019-04-30T00:32:55.723Z,7.78
2019-04-30T00:35:25.363Z,6.70
2019-04-30T00:37:57.549Z,6.83
2019-04-30T00:40:26.797Z,7.33
2019-04-30T00:43:00.156Z,6.53
2019-04-30T00:45:28.882Z,6.30
2019-04-30T00:48:01.104Z,7.10
2019-04-30T00:50:33.912Z,6.87
2019-04-30T00:53:12.221Z,7.15
2019-04-30T00:55:40.283Z,7.55
2019-04-30T00:58:05.916Z,7.67
2019-04-30T01:00:37.173Z,7.20
2019-04-30T01:03:10.738Z,7.53
2019-04-30T01:05:39.631Z,6.97
2019-04-30T01:08:10.211Z,6.70
2019-04-30T01:10:38.808Z,7.33
2019-04-30T01:13:11.815Z,7.78
2019-04-30T01:15:39.056Z,8.25
2019-04-30T01:18:09.325Z,7.00
2019-04-30T01:20:38.670Z,6.92
2019-04-30T01:23:11.291Z,6.75
2019-04-30T01:25:39.000Z,6.92
2019-04-30T01:28:10.745Z,7.40
2019-04-30T01:30:39.382Z,6.90
2019-04-30T01:33:09.134Z,7.03
2019-04-30T01:35:38.257Z,7.95
2019-04-30T01:38:11.123Z,6.58
2019-04-30T01:40:42.784Z,7.37
2019-04-30T01:43:11.910Z,6.97
2019-04-30T01:45:40.488Z,6.95
2019-04-30T01:48:12.094Z,6.67
2019-04-30T01:50:42.086Z,7.40
2019-04-30T01:53:13.079Z,6.70
2019-04-30T01:55:44.325Z,7.20
2019-04-30T01:58:29.917Z,5.72
2019-04-30T02:01:04.493Z,6.67
2019-04-30T02:03:33.123Z,7.00
2019-04-30T02:06:01.727Z,6.25
2019-04-30T02:08:30.363Z,7.47
2019-04-30T02:10:59.445Z,7.00
2019-04-30T02:13:31.177Z,7.35
2019-04-30T02:15:59.240Z,7.12
2019-04-30T02:18:29.551Z,6.97
2019-04-30T02:20:59.507Z,8.35
2019-04-30T02:23:29.737Z,6.80
2019-04-30T02:25:59.436Z,7.85
2019-04-30T02:28:29.039Z,7.90
2019-04-30T02:31:00.384Z,8.93
2019-04-30T02:33:30.624Z,7.35
2019-04-30T02:36:10.501Z,8.20
2019-04-30T02:38:40.806Z,7.70
2019-04-30T02:41:10.087Z,7.90
2019-04-30T02:43:40.902Z,8.03
2019-04-30T02:46:10.748Z,7.55
2019-04-30T02:48:40.416Z,7.97
2019-04-30T02:51:11.632Z,8.38
2019-04-30T02:53:52.354Z,7.83
2019-04-30T02:56:26.258Z,7.85
2019-04-30T02:58:52.984Z,7.75
2019-04-30T03:01:21.551Z,7.95
2019-04-30T03:03:50.396Z,7.95
2019-04-30T03:06:23.203Z,7.37
2019-04-30T03:08:51.191Z,7.30
2019-04-30T03:11:20.682Z,7.87
2019-04-30T03:13:49.844Z,7.50
2019-04-30T03:16:21.003Z,8.60
2019-04-30T03:18:54.044Z,7.40
2019-04-30T03:21:40.633Z,7.70
2019-04-30T03:24:10.709Z,7.55
2019-04-30T03:26:40.153Z,8.80
2019-04-30T03:29:11.256Z,7.78
2019-04-30T03:31:44.254Z,7.28
2019-04-30T03:34:12.467Z,7.47
2019-04-30T03:36:40.621Z,8.60
2019-04-30T03:39:10.989Z,7.62
2019-04-30T03:41:41.494Z,7.70
2019-04-30T03:44:18.561Z,6.90
2019-04-30T03:46:40.601Z,7.92
2019-04-30T03:49:12.436Z,6.72
2019-04-30T03:51:40.427Z,8.10
2019-04-30T03:54:10.195Z,7.90
2019-04-30T03:56:40.131Z,7.60
2019-04-30T03:59:11.026Z,7.47
2019-04-30T04:01:41.479Z,7.65
2019-04-30T04:04:20.608Z,7.80
2019-04-30T04:06:53.780Z,6.45
2019-04-30T04:09:24.033Z,7.87
2019-04-30T04:11:52.675Z,7.22
2019-04-30T04:14:21.274Z,6.92
2019-04-30T04:17:09.846Z,6.85
2019-04-30T04:19:39.291Z,6.30
2019-04-30T04:22:09.971Z,6.15
2019-04-30T04:24:40.184Z,5.85
2019-04-30T04:27:09.713Z,5.87
2019-04-30T04:29:40.325Z,5.58
2019-04-30T04:32:10.559Z,4.83
2019-04-30T04:34:40.013Z,6.45
2019-04-30T04:37:10.083Z,5.10
2019-04-30T04:39:41.920Z,4.97
2019-04-30T04:42:10.141Z,4.58
2019-04-30T04:44:39.954Z,4.70
2019-04-30T04:47:09.923Z,4.97
2019-04-30T04:49:39.781Z,5.22
2019-04-30T04:52:10.293Z,5.20
2019-04-30T04:54:39.959Z,4.35
2019-04-30T04:57:16.896Z,4.37
2019-04-30T04:59:39.367Z,4.78
2019-04-30T05:02:32.145Z,3.98
2019-04-30T05:04:59.868Z,5.33
2019-04-30T05:07:28.667Z,4.80
2019-04-30T05:10:00.483Z,4.55
2019-04-30T05:12:29.587Z,4.28
2019-04-30T05:14:59.583Z,4.40
2019-04-30T05:17:29.665Z,4.40
2019-04-30T05:19:58.790Z,4.40
2019-04-30T05:22:29.181Z,3.67
2019-04-30T05:24:58.962Z,4.20
2019-04-30T05:27:27.836Z,3.47
2019-04-30T05:29:56.463Z,3.95
2019-04-30T05:32:25.002Z,4.30
2019-04-30T05:34:53.543Z,3.60
2019-04-30T05:37:22.551Z,2.75
2019-04-30T05:39:51.300Z,2.98
2019-04-30T05:42:20.004Z,3.75
2019-04-30T05:44:49.729Z,3.35
2019-04-30T05:47:19.641Z,2.62
2019-04-30T05:49:48.890Z,3.02
2019-04-30T05:52:19.958Z,2.60
2019-04-30T05:54:48.801Z,2.75
2019-04-30T05:57:19.617Z,3.00
2019-04-30T05:59:48.717Z,3.05
2019-04-30T06:02:19.436Z,3.75
2019-04-30T06:04:48.957Z,3.33
2019-04-30T06:07:18.992Z,2.85
2019-04-30T06:09:59.749Z,3.70
2019-04-30T06:12:29.991Z,3.35
2019-04-30T06:15:03.272Z,3.12
2019-04-30T06:17:33.327Z,3.22
2019-04-30T06:20:01.928Z,2.50
2019-04-30T06:22:30.720Z,2.75
2019-04-30T06:24:59.549Z,3.47
2019-04-30T06:27:29.184Z,2.98
2019-04-30T06:29:58.517Z,2.58
2019-04-30T06:32:27.202Z,2.95
2019-04-30T06:34:55.992Z,2.80
2019-04-30T06:37:25.158Z,1.98
2019-04-30T06:39:53.845Z,2.55
2019-04-30T06:42:22.534Z,1.98
2019-04-30T06:44:51.607Z,1.75
2019-04-30T06:47:32.394Z,2.20
2019-04-30T06:49:51.255Z,1.50
2019-04-30T06:52:22.995Z,2.05
2019-04-30T06:54:50.066Z,1.65
2019-04-30T06:57:19.840Z,1.42
2019-04-30T06:59:51.268Z,1.90
2019-04-30T07:02:19.680Z,1.20
2019-04-30T07:04:49.151Z,1.25
2019-04-30T07:07:22.705Z,1.30
2019-04-30T07:10:02.471Z,1.25
2019-04-30T07:12:34.164Z,1.55
2019-04-30T07:15:03.496Z,1.00
2019-04-30T07:17:32.046Z,1.35
2019-04-30T07:20:00.587Z,1.32
2019-04-30T07:22:39.712Z,1.57
2019-04-30T07:24:59.686Z,1.05
2019-04-30T07:27:30.157Z,1.15
2019-04-30T07:29:59.579Z,1.35
2019-04-30T07:32:28.891Z,1.55
2019-04-30T07:34:59.275Z,1.65
2019-04-30T07:37:29.270Z,1.22
2019-04-30T07:39:58.875Z,1.15
2019-04-30T07:42:29.501Z,1.20
2019-04-30T07:45:00.690Z,1.00
2019-04-30T07:47:29.597Z,1.07
2019-04-30T07:50:00.743Z,1.30
2019-04-30T07:52:33.269Z,1.30
2019-04-30T07:55:00.649Z,1.10
2019-04-30T07:57:29.186Z,1.25
2019-04-30T08:00:00.506Z,1.87
2019-04-30T08:02:36.406Z,2.12
2019-04-30T08:05:02.791Z,1.70
2019-04-30T08:07:31.459Z,1.37
2019-04-30T08:10:00.071Z,1.62
2019-04-30T08:12:33.468Z,1.75
2019-04-30T08:14:59.454Z,1.65
2019-04-30T08:17:28.905Z,1.52
2019-04-30T08:19:58.784Z,1.90
2019-04-30T08:22:29.614Z,1.60
2019-04-30T08:24:58.711Z,1.70
2019-04-30T08:27:29.491Z,2.12
2019-04-30T08:29:59.235Z,2.30
2019-04-30T08:32:28.987Z,1.77
2019-04-30T08:35:01.000Z,1.82
2019-04-30T08:37:28.872Z,1.60
2019-04-30T08:39:59.778Z,1.70
2019-04-30T08:42:31.784Z,1.82
2019-04-30T08:44:58.553Z,1.82
2019-04-30T08:47:29.106Z,1.62
2019-04-30T08:49:59.465Z,1.60
2019-04-30T08:52:28.109Z,2.00
2019-04-30T08:54:56.766Z,1.50
2019-04-30T08:57:25.285Z,2.02
2019-04-30T08:59:53.823Z,1.37
2019-04-30T09:02:22.462Z,1.20
2019-04-30T09:04:52.628Z,1.12
2019-04-30T09:07:21.264Z,1.20
2019-04-30T09:09:49.795Z,1.82
2019-04-30T09:12:19.618Z,1.00
2019-04-30T09:14:49.070Z,1.57
2019-04-30T09:17:19.720Z,0.93
2019-04-30T09:19:48.991Z,1.10
2019-04-30T09:22:19.529Z,1.05
2019-04-30T09:24:49.683Z,1.07
2019-04-30T09:27:19.545Z,0.65
2019-04-30T09:29:49.185Z,0.75
2019-04-30T09:32:19.288Z,1.07
2019-04-30T09:34:48.817Z,0.90
2019-04-30T09:37:18.750Z,0.60
2019-04-30T09:39:49.498Z,1.10
2019-04-30T09:42:19.434Z,0.82
2019-04-30T09:44:49.255Z,0.80
2019-04-30T09:47:19.878Z,0.82
2019-04-30T09:49:49.387Z,0.80
2019-04-30T09:52:19.156Z,0.80
2019-04-30T09:54:50.074Z,0.70
2019-04-30T09:57:19.279Z,0.70
2019-04-30T09:59:48.621Z,0.85
2019-04-30T10:02:19.072Z,0.60
2019-04-30T10:04:48.255Z,0.60
2019-04-30T10:07:19.349Z,0.60
2019-04-30T10:09:50.653Z,1.17
2019-04-30T10:12:19.517Z,0.50
2019-04-30T10:14:49.434Z,0.82
2019-04-30T10:17:25.718Z,0.75
2019-04-30T10:19:54.259Z,0.70
2019-04-30T10:22:22.845Z,0.70
2019-04-30T10:24:51.445Z,0.80
2019-04-30T10:27:20.139Z,0.77
2019-04-30T10:29:49.446Z,0.80
2019-04-30T10:32:18.686Z,1.00
2019-04-30T10:34:48.018Z,1.00
2019-04-30T10:37:18.748Z,0.87
2019-04-30T10:39:48.823Z,0.80
2019-04-30T10:42:17.004Z,0.72
2019-04-30T10:44:45.619Z,1.10
2019-04-30T10:47:14.482Z,1.30
2019-04-30T10:49:43.128Z,1.55
2019-04-30T10:52:11.720Z,1.30
2019-04-30T10:54:40.251Z,1.10
2019-04-30T10:57:08.845Z,1.20
2019-04-30T10:59:37.684Z,1.03
2019-04-30T11:02:06.582Z,1.37
2019-04-30T11:04:35.118Z,0.80
2019-04-30T11:07:04.095Z,0.63
2019-04-30T11:09:34.064Z,0.80
2019-04-30T11:12:03.168Z,0.80
2019-04-30T11:14:31.975Z,0.70
2019-04-30T11:17:00.778Z,0.60
2019-04-30T11:19:30.226Z,0.80
2019-04-30T11:21:59.189Z,0.70
2019-04-30T11:24:36.607Z,0.80
2019-04-30T11:26:59.991Z,0.70
2019-04-30T11:29:30.545Z,0.90
2019-04-30T11:32:00.326Z,1.07
2019-04-30T11:34:28.966Z,0.90
2019-04-30T11:36:57.571Z,0.80
2019-04-30T11:39:26.659Z,1.10
2019-04-30T11:41:55.183Z,0.93
2019-04-30T11:44:30.983Z,1.40
2019-04-30T11:47:00.745Z,1.30
2019-04-30T11:49:29.423Z,0.83
2019-04-30T11:51:57.962Z,1.20
2019-04-30T11:54:26.584Z,1.13
2019-04-30T11:56:55.118Z,1.17
2019-04-30T11:59:23.764Z,1.10
2019-04-30T12:01:54.002Z,0.97
2019-04-30T12:04:22.552Z,1.00
2019-04-30T12:06:52.351Z,1.07
2019-04-30T12:09:40.766Z,1.03
2019-04-30T12:12:09.389Z,0.70
2019-04-30T12:14:39.478Z,1.00
2019-04-30T12:17:08.325Z,0.80
2019-04-30T12:19:38.348Z,0.90
2019-04-30T12:22:07.043Z,0.73
2019-04-30T12:24:35.729Z,1.17
2019-04-30T12:27:04.379Z,0.73
2019-04-30T12:29:33.016Z,0.83
2019-04-30T12:32:01.560Z,1.03
2019-04-30T12:34:30.239Z,0.67
2019-04-30T12:36:59.657Z,0.97
2019-04-30T12:39:30.162Z,1.03
2019-04-30T12:42:00.730Z,1.40
2019-04-30T12:44:29.108Z,1.40
2019-04-30T12:46:58.639Z,0.87
2019-04-30T12:49:28.798Z,0.90
2019-04-30T12:52:11.240Z,1.00
2019-04-30T12:54:41.425Z,1.13
2019-04-30T12:57:14.629Z,1.17
2019-04-30T12:59:43.181Z,1.47
2019-04-30T13:02:11.803Z,1.40
2019-04-30T13:04:40.420Z,1.53
2019-04-30T13:07:10.608Z,1.73
2019-04-30T13:09:40.210Z,1.63
2019-04-30T13:12:10.689Z,1.43
2019-04-30T13:14:51.314Z,1.27
2019-04-30T13:17:09.863Z,1.50
2019-04-30T13:19:38.399Z,2.53
2019-04-30T13:22:09.055Z,2.13
2019-04-30T13:24:37.354Z,1.87
2019-04-30T13:27:09.329Z,2.00
2019-04-30T13:29:42.794Z,2.17
2019-04-30T13:32:11.904Z,2.20
2019-04-30T13:34:45.257Z,2.30
2019-04-30T13:37:14.251Z,3.00
2019-04-30T13:40:01.475Z,2.63
2019-04-30T13:42:40.796Z,2.93
2019-04-30T13:45:10.655Z,2.27
2019-04-30T13:47:39.314Z,2.43
2019-04-30T13:50:09.309Z,3.00
2019-04-30T13:52:38.966Z,3.47
2019-04-30T13:55:10.710Z,3.60
2019-04-30T13:57:38.543Z,3.90
2019-04-30T14:00:12.216Z,3.80
2019-04-30T14:02:44.719Z,3.80
2019-04-30T14:05:14.644Z,5.03
2019-04-30T14:07:49.535Z,4.00
2019-04-30T14:10:19.557Z,4.40
2019-04-30T14:12:50.293Z,4.87
2019-04-30T14:15:19.909Z,6.27
2019-04-30T14:17:49.354Z,5.07
2019-04-30T14:20:18.383Z,4.97
2019-04-30T14:22:47.016Z,5.83
2019-04-30T14:25:15.796Z,5.07
2019-04-30T14:27:52.265Z,5.40
2019-04-30T14:30:16.033Z,5.60
2019-04-30T14:32:44.664Z,4.93
2019-04-30T14:35:13.445Z,4.47
2019-04-30T14:37:42.046Z,4.57
2019-04-30T14:40:13.146Z,4.77
2019-04-30T14:42:43.184Z,4.90
2019-04-30T14:45:20.568Z,4.63
2019-04-30T14:47:54.771Z,5.10
2019-04-30T14:50:25.760Z,4.33
2019-04-30T14:52:55.998Z,5.50
2019-04-30T14:55:26.260Z,6.03
2019-04-30T14:57:56.528Z,5.20
2019-04-30T15:00:42.073Z,5.10
2019-04-30T15:03:12.274Z,5.77
2019-04-30T15:05:48.398Z,5.20
2019-04-30T15:08:11.230Z,6.03
2019-04-30T15:10:39.979Z,6.10
2019-04-30T15:13:09.732Z,5.43
2019-04-30T15:15:39.217Z,6.97
2019-04-30T15:18:09.220Z,7.50
2019-04-30T15:20:39.781Z,5.57
2019-04-30T15:23:19.128Z,4.53
2019-04-30T15:25:42.790Z,6.13
2019-04-30T15:28:11.397Z,4.63
2019-04-30T15:30:42.006Z,4.37
2019-04-30T15:33:21.125Z,4.50
2019-04-30T15:35:50.314Z,4.50
2019-04-30T15:38:19.395Z,6.80
2019-04-30T15:40:48.033Z,5.53
2019-04-30T15:43:16.732Z,6.70
2019-04-30T15:45:45.417Z,4.93
2019-04-30T15:48:13.977Z,4.60
2019-04-30T15:50:43.299Z,3.83
2019-04-30T15:53:11.908Z,5.30
2019-04-30T15:55:40.595Z,4.57
2019-04-30T15:58:22.873Z,4.40
2019-04-30T16:00:51.655Z,4.83
2019-04-30T16:03:24.962Z,4.70
2019-04-30T16:05:55.290Z,4.43
2019-04-30T16:08:25.608Z,4.23
2019-04-30T16:11:10.399Z,4.20
2019-04-30T16:13:49.546Z,4.83
2019-04-30T16:16:19.187Z,4.27
2019-04-30T16:18:49.784Z,4.57
2019-04-30T16:21:19.354Z,4.03
2019-04-30T16:23:49.044Z,4.20
2019-04-30T16:26:17.865Z,4.40
2019-04-30T16:28:46.437Z,4.10
2019-04-30T16:31:15.164Z,4.67
2019-04-30T16:33:43.727Z,4.17
2019-04-30T16:36:12.258Z,5.00
2019-04-30T16:38:40.836Z,5.40
2019-04-30T16:41:09.443Z,4.87
2019-04-30T16:43:38.853Z,7.83
2019-04-30T16:46:07.608Z,7.00
2019-04-30T16:48:36.138Z,7.83
2019-04-30T16:51:04.787Z,6.70
2019-04-30T16:53:34.041Z,6.47
2019-04-30T16:56:02.716Z,6.57
2019-04-30T16:58:32.920Z,7.83
2019-04-30T17:01:03.164Z,6.43
2019-04-30T17:03:45.003Z,8.43
2019-04-30T17:06:15.259Z,7.63
2019-04-30T17:08:45.471Z,9.20
2019-04-30T17:11:16.057Z,6.33
2019-04-30T17:13:46.229Z,6.30
2019-04-30T17:16:19.669Z,5.77
2019-04-30T17:18:49.900Z,6.67
2019-04-30T17:21:19.683Z,4.77
2019-04-30T17:23:50.846Z,6.13
2019-04-30T17:26:18.807Z,6.20
2019-04-30T17:28:47.960Z,6.43
2019-04-30T17:31:17.491Z,4.83
2019-04-30T17:33:46.072Z,4.80
2019-04-30T17:36:14.746Z,6.00
2019-04-30T17:38:43.289Z,4.83
2019-04-30T17:41:12.496Z,5.63
2019-04-30T17:43:41.820Z,4.67
2019-04-30T17:46:10.574Z,5.00
2019-04-30T17:48:39.399Z,5.63
2019-04-30T17:51:09.443Z,4.77
2019-04-30T17:53:39.766Z,4.53
2019-04-30T17:56:08.297Z,5.37
2019-04-30T17:58:36.867Z,4.70
2019-04-30T18:01:06.719Z,6.77
2019-04-30T18:03:35.436Z,7.17
2019-04-30T18:06:04.131Z,5.97
2019-04-30T18:08:32.696Z,6.17
2019-04-30T18:11:01.220Z,5.40
2019-04-30T18:13:29.805Z,4.53
2019-04-30T18:16:00.289Z,5.67
2019-04-30T18:18:30.253Z,5.13
2019-04-30T18:21:09.668Z,5.83
2019-04-30T18:23:42.323Z,5.27
2019-04-30T18:26:12.535Z,5.20
2019-04-30T18:28:41.137Z,5.43
2019-04-30T18:31:09.904Z,5.60
2019-04-30T18:33:38.514Z,5.40
2019-04-30T18:36:07.188Z,4.10
2019-04-30T18:38:35.744Z,4.30
2019-04-30T18:41:04.426Z,4.70
2019-04-30T18:43:33.052Z,4.40
2019-04-30T18:46:01.635Z,4.43
2019-04-30T18:48:30.194Z,3.90
2019-04-30T18:50:58.730Z,3.83
2019-04-30T18:53:28.917Z,4.33
2019-04-30T18:55:59.188Z,3.80
2019-04-30T18:58:39.629Z,3.80
2019-04-30T19:00:59.284Z,4.30
2019-04-30T19:03:29.272Z,4.07
2019-04-30T19:05:59.756Z,4.00
2019-04-30T19:08:29.991Z,5.93
2019-04-30T19:11:06.051Z,4.40
2019-04-30T19:13:52.594Z,4.50
2019-04-30T19:16:26.012Z,5.10
2019-04-30T19:18:56.293Z,5.93
2019-04-30T19:21:24.891Z,5.57
2019-04-30T19:23:53.515Z,6.47
2019-04-30T19:26:22.048Z,4.47
2019-04-30T19:28:50.609Z,5.17
2019-04-30T19:31:19.895Z,4.90
2019-04-30T19:33:48.992Z,4.50
2019-04-30T19:36:20.700Z,4.60
2019-04-30T19:38:48.562Z,5.10
2019-04-30T19:41:19.021Z,6.23
2019-04-30T19:43:49.886Z,4.60
2019-04-30T19:46:18.777Z,4.73
2019-04-30T19:48:50.489Z,5.20
2019-04-30T19:51:19.619Z,5.60
2019-04-30T19:53:48.950Z,4.70
2019-04-30T19:56:18.337Z,4.70
2019-04-30T19:58:59.206Z,5.03
2019-04-30T20:01:18.293Z,4.23
2019-04-30T20:03:46.841Z,5.00
2019-04-30T20:06:15.438Z,4.13
2019-04-30T20:08:44.071Z,4.47
2019-04-30T20:11:12.754Z,4.60
2019-04-30T20:13:41.283Z,4.37
2019-04-30T20:16:09.920Z,4.70
2019-04-30T20:18:38.993Z,4.00
2019-04-30T20:21:09.469Z,5.20
2019-04-30T20:23:38.000Z,4.80
2019-04-30T20:26:06.609Z,3.43
2019-04-30T20:28:39.990Z,4.53
2019-04-30T20:31:05.404Z,4.50
2019-04-30T20:33:34.021Z,4.40
2019-04-30T20:36:02.561Z,4.93
2019-04-30T20:38:35.471Z,5.20
2019-04-30T20:41:05.886Z,4.60
2019-04-30T20:43:34.576Z,4.93
2019-04-30T20:46:03.278Z,4.60
2019-04-30T20:48:31.819Z,4.50
2019-04-30T20:51:01.436Z,4.37
2019-04-30T20:53:30.101Z,5.33
2019-04-30T20:55:59.345Z,4.00
2019-04-30T20:58:28.059Z,4.83
2019-04-30T21:01:03.598Z,4.37
2019-04-30T21:03:26.873Z,3.87
2019-04-30T21:05:55.435Z,4.90
2019-04-30T21:08:23.979Z,5.40
2019-04-30T21:10:52.528Z,4.07
2019-04-30T21:13:21.082Z,4.67
2019-04-30T21:15:49.763Z,5.07
2019-04-30T21:18:19.523Z,6.00
2019-04-30T21:20:49.706Z,5.07
2019-04-30T21:23:19.449Z,5.33
2019-04-30T21:25:48.822Z,7.17
2019-04-30T21:28:19.545Z,5.97
2019-04-30T21:30:48.420Z,33.57
2019-04-30T21:33:19.347Z,21.13
2019-04-30T21:35:50.786Z,6.30
2019-04-30T21:38:19.602Z,6.00
2019-04-30T21:40:49.226Z,5.70
2019-04-30T21:43:17.968Z,5.80
2019-04-30T21:45:46.643Z,5.93
2019-04-30T21:48:15.204Z,5.70
2019-04-30T21:50:43.744Z,7.03
2019-04-30T21:53:12.300Z,6.30
2019-04-30T21:55:40.906Z,5.90
2019-04-30T21:58:09.732Z,5.60
2019-04-30T22:00:43.096Z,6.57
2019-04-30T22:03:11.712Z,6.50
2019-04-30T22:05:40.347Z,6.90
2019-04-30T22:08:09.265Z,6.70
2019-04-30T22:10:37.952Z,7.47
2019-04-30T22:13:08.766Z,7.27
2019-04-30T22:15:36.886Z,6.43
2019-04-30T22:18:05.500Z,5.80
2019-04-30T22:20:34.180Z,6.10
2019-04-30T22:23:02.747Z,6.53
2019-04-30T22:25:31.359Z,6.83
2019-04-30T22:27:59.919Z,5.93
2019-04-30T22:30:28.595Z,6.53
2019-04-30T22:32:59.469Z,5.33
2019-04-30T22:35:29.198Z,6.97
2019-04-30T22:37:59.451Z,6.10
2019-04-30T22:40:29.040Z,5.63
2019-04-30T22:42:59.360Z,6.03
2019-04-30T22:45:29.692Z,5.80
2019-04-30T22:47:58.916Z,6.40
2019-04-30T22:50:27.638Z,7.33
2019-04-30T22:52:56.271Z,6.57
2019-04-30T22:55:24.805Z,6.03
2019-04-30T22:57:53.433Z,6.00
2019-04-30T23:00:23.854Z,6.10
2019-04-30T23:02:56.895Z,6.60
2019-04-30T23:05:25.494Z,6.90
2019-04-30T23:07:54.351Z,5.40
2019-04-30T23:10:22.883Z,5.90
2019-04-30T23:12:51.483Z,5.40
2019-04-30T23:15:21.244Z,5.70
2019-04-30T23:17:49.929Z,6.78
2019-04-30T23:20:18.638Z,6.70
2019-04-30T23:22:47.180Z,7.30
2019-04-30T23:25:15.862Z,7.90
2019-04-30T23:27:44.507Z,7.80
2019-04-30T23:30:13.663Z,6.10
2019-04-30T23:32:42.456Z,6.50
2019-04-30T23:35:11.349Z,6.47
2019-04-30T23:37:40.019Z,6.60
2019-04-30T23:40:48.092Z,6.03
2019-04-30T23:43:16.735Z,6.03
2019-04-30T23:45:45.348Z,6.00
2019-04-30T23:48:14.027Z,5.80
2019-04-30T23:50:42.604Z,5.73
2019-04-30T23:53:11.283Z,6.75
2019-04-30T23:55:39.915Z,7.57
2019-04-30T23:58:08.584Z,7.60
